sensor_id;sensor_type;location;lat;lon;timestamp;P1;durP1;ratioP1;P2;durP2;ratioP2
47251;SDS011;32991;51.374;11.586;2023-03-14T00:00:06;2.30;;;0.70;;
47251;SDS011;32991;51.374;11.586;2023-03-14T00:02:37;0.93;;;0.60;;
47251;SDS011;32991;51.374;11.586;2023-03-14T00:05:04;1.10;;;0.60;;
47251;SDS011;32991;51.374;11.586;2023-03-14T00:07:36;0.77;;;0.60;;
47251;SDS011;32991;51.374;11.586;2023-03-14T00:10:04;1.13;;;0.68;;
47251;SDS011;32991;51.374;11.586;2023-03-14T00:12:33;0.70;;;0.70;;
47251;SDS011;32991;51.374;11.586;2023-03-14T00:14:59;1.42;;;0.60;;
47251;SDS011;32991;51.374;11.586;2023-03-14T00:17:26;1.10;;;0.88;;
47251;SDS011;32991;51.374;11.586;2023-03-14T00:19:53;0.90;;;0.70;;
47251;SDS011;32991;51.374;11.586;2023-03-14T00:22:20;0.90;;;0.70;;
47251;SDS011;32991;51.374;11.586;2023-03-14T00:24:47;1.42;;;0.77;;
47251;SDS011;32991;51.374;11.586;2023-03-14T00:27:13;1.20;;;0.90;;
47251;SDS011;32991;51.374;11.586;2023-03-14T00:29:40;1.00;;;0.90;;
47251;SDS011;32991;51.374;11.586;2023-03-14T00:32:08;1.52;;;0.60;;
47251;SDS011;32991;51.374;11.586;2023-03-14T00:34:35;0.70;;;0.70;;
47251;SDS011;32991;51.374;11.586;2023-03-14T00:37:01;0.75;;;0.75;;
47251;SDS011;32991;51.374;11.586;2023-03-14T00:39:28;0.90;;;0.73;;
47251;SDS011;32991;51.374;11.586;2023-03-14T00:41:55;1.00;;;0.80;;
47251;SDS011;32991;51.374;11.586;2023-03-14T00:44:22;3.08;;;0.95;;
47251;SDS011;32991;51.374;11.586;2023-03-14T00:46:48;3.22;;;0.80;;
47251;SDS011;32991;51.374;11.586;2023-03-14T00:49:15;1.67;;;0.80;;
47251;SDS011;32991;51.374;11.586;2023-03-14T00:51:42;2.42;;;1.05;;
47251;SDS011;32991;51.374;11.586;2023-03-14T00:54:10;0.70;;;0.70;;
47251;SDS011;32991;51.374;11.586;2023-03-14T00:56:36;0.80;;;0.80;;
47251;SDS011;32991;51.374;11.586;2023-03-14T00:59:03;0.85;;;0.77;;
47251;SDS011;32991;51.374;11.586;2023-03-14T01:01:29;1.88;;;0.88;;
47251;SDS011;32991;51.374;11.586;2023-03-14T01:03:56;2.90;;;0.90;;
47251;SDS011;32991;51.374;11.586;2023-03-14T01:06:24;1.30;;;0.80;;
47251;SDS011;32991;51.374;11.586;2023-03-14T01:08:52;1.48;;;0.82;;
47251;SDS011;32991;51.374;11.586;2023-03-14T01:11:20;1.02;;;0.90;;
47251;SDS011;32991;51.374;11.586;2023-03-14T01:13:49;0.95;;;0.82;;
47251;SDS011;32991;51.374;11.586;2023-03-14T01:16:16;1.48;;;0.95;;
47251;SDS011;32991;51.374;11.586;2023-03-14T01:18:44;0.95;;;0.80;;
47251;SDS011;32991;51.374;11.586;2023-03-14T01:21:15;1.13;;;0.80;;
47251;SDS011;32991;51.374;11.586;2023-03-14T01:23:45;1.63;;;0.90;;
47251;SDS011;32991;51.374;11.586;2023-03-14T01:26:14;1.90;;;0.93;;
47251;SDS011;32991;51.374;11.586;2023-03-14T01:28:42;0.98;;;0.80;;
47251;SDS011;32991;51.374;11.586;2023-03-14T01:31:09;1.52;;;0.75;;
47251;SDS011;32991;51.374;11.586;2023-03-14T01:33:37;1.67;;;0.95;;
47251;SDS011;32991;51.374;11.586;2023-03-14T01:36:04;0.80;;;0.80;;
47251;SDS011;32991;51.374;11.586;2023-03-14T01:38:32;1.25;;;0.90;;
47251;SDS011;32991;51.374;11.586;2023-03-14T01:40:59;2.75;;;1.15;;
47251;SDS011;32991;51.374;11.586;2023-03-14T01:43:26;0.80;;;0.80;;
47251;SDS011;32991;51.374;11.586;2023-03-14T01:46:12;2.38;;;1.15;;
47251;SDS011;32991;51.374;11.586;2023-03-14T01:48:55;1.25;;;0.80;;
47251;SDS011;32991;51.374;11.586;2023-03-14T01:51:29;1.00;;;0.80;;
47251;SDS011;32991;51.374;11.586;2023-03-14T01:54:05;1.42;;;1.00;;
47251;SDS011;32991;51.374;11.586;2023-03-14T01:56:35;1.63;;;0.98;;
47251;SDS011;32991;51.374;11.586;2023-03-14T01:59:03;0.98;;;0.90;;
47251;SDS011;32991;51.374;11.586;2023-03-14T02:01:32;2.97;;;1.05;;
47251;SDS011;32991;51.374;11.586;2023-03-14T02:04:00;1.20;;;0.90;;
47251;SDS011;32991;51.374;11.586;2023-03-14T02:06:37;0.77;;;0.77;;
47251;SDS011;32991;51.374;11.586;2023-03-14T02:09:07;2.42;;;0.90;;
47251;SDS011;32991;51.374;11.586;2023-03-14T02:11:34;0.80;;;0.73;;
47251;SDS011;32991;51.374;11.586;2023-03-14T02:14:08;3.40;;;0.98;;
47251;SDS011;32991;51.374;11.586;2023-03-14T02:16:55;1.33;;;0.80;;
47251;SDS011;32991;51.374;11.586;2023-03-14T02:22:35;1.10;;;0.93;;
47251;SDS011;32991;51.374;11.586;2023-03-14T02:28:01;2.13;;;0.77;;
47251;SDS011;32991;51.374;11.586;2023-03-14T02:30:29;2.42;;;1.10;;
47251;SDS011;32991;51.374;11.586;2023-03-14T02:32:58;0.70;;;0.70;;
47251;SDS011;32991;51.374;11.586;2023-03-14T02:35:29;0.90;;;0.75;;
47251;SDS011;32991;51.374;11.586;2023-03-14T02:38:19;1.05;;;0.90;;
47251;SDS011;32991;51.374;11.586;2023-03-14T02:40:50;0.82;;;0.80;;
47251;SDS011;32991;51.374;11.586;2023-03-14T02:43:17;0.88;;;0.85;;
47251;SDS011;32991;51.374;11.586;2023-03-14T02:45:49;1.38;;;0.88;;
47251;SDS011;32991;51.374;11.586;2023-03-14T02:48:24;0.90;;;0.80;;
47251;SDS011;32991;51.374;11.586;2023-03-14T02:50:54;1.27;;;0.80;;
47251;SDS011;32991;51.374;11.586;2023-03-14T02:53:27;2.28;;;1.00;;
47251;SDS011;32991;51.374;11.586;2023-03-14T02:55:59;4.28;;;1.17;;
47251;SDS011;32991;51.374;11.586;2023-03-14T02:58:28;1.63;;;1.00;;
47251;SDS011;32991;51.374;11.586;2023-03-14T03:01:03;1.48;;;0.80;;
47251;SDS011;32991;51.374;11.586;2023-03-14T03:03:30;2.22;;;1.05;;
47251;SDS011;32991;51.374;11.586;2023-03-14T03:05:57;1.75;;;1.00;;
47251;SDS011;32991;51.374;11.586;2023-03-14T03:08:24;2.05;;;1.00;;
47251;SDS011;32991;51.374;11.586;2023-03-14T03:10:53;2.05;;;1.05;;
47251;SDS011;32991;51.374;11.586;2023-03-14T03:13:20;3.03;;;1.02;;
47251;SDS011;32991;51.374;11.586;2023-03-14T03:15:51;1.70;;;0.93;;
47251;SDS011;32991;51.374;11.586;2023-03-14T03:18:17;2.13;;;1.00;;
47251;SDS011;32991;51.374;11.586;2023-03-14T03:20:44;4.68;;;1.10;;
47251;SDS011;32991;51.374;11.586;2023-03-14T03:23:11;1.92;;;1.00;;
47251;SDS011;32991;51.374;11.586;2023-03-14T03:25:38;2.03;;;1.13;;
47251;SDS011;32991;51.374;11.586;2023-03-14T03:28:05;1.77;;;1.00;;
47251;SDS011;32991;51.374;11.586;2023-03-14T03:30:37;2.55;;;1.17;;
47251;SDS011;32991;51.374;11.586;2023-03-14T03:33:04;3.63;;;1.10;;
47251;SDS011;32991;51.374;11.586;2023-03-14T03:35:31;3.30;;;1.20;;
47251;SDS011;32991;51.374;11.586;2023-03-14T03:37:58;3.13;;;1.10;;
47251;SDS011;32991;51.374;11.586;2023-03-14T03:40:26;2.45;;;1.17;;
47251;SDS011;32991;51.374;11.586;2023-03-14T03:42:53;2.08;;;1.08;;
47251;SDS011;32991;51.374;11.586;2023-03-14T03:45:20;1.10;;;1.00;;
47251;SDS011;32991;51.374;11.586;2023-03-14T03:47:51;2.50;;;1.23;;
47251;SDS011;32991;51.374;11.586;2023-03-14T03:50:18;3.28;;;1.17;;
47251;SDS011;32991;51.374;11.586;2023-03-14T03:52:44;5.22;;;1.20;;
47251;SDS011;32991;51.374;11.586;2023-03-14T03:55:11;3.08;;;1.38;;
47251;SDS011;32991;51.374;11.586;2023-03-14T03:57:37;3.22;;;1.25;;
47251;SDS011;32991;51.374;11.586;2023-03-14T04:00:04;2.58;;;1.10;;
47251;SDS011;32991;51.374;11.586;2023-03-14T04:02:39;4.05;;;1.23;;
47251;SDS011;32991;51.374;11.586;2023-03-14T04:05:08;4.50;;;1.27;;
47251;SDS011;32991;51.374;11.586;2023-03-14T04:07:37;4.45;;;1.75;;
47251;SDS011;32991;51.374;11.586;2023-03-14T04:10:05;2.35;;;1.42;;
47251;SDS011;32991;51.374;11.586;2023-03-14T04:12:35;4.05;;;1.40;;
47251;SDS011;32991;51.374;11.586;2023-03-14T04:15:06;3.38;;;1.02;;
47251;SDS011;32991;51.374;11.586;2023-03-14T04:17:35;4.22;;;1.63;;
47251;SDS011;32991;51.374;11.586;2023-03-14T04:20:02;3.67;;;1.30;;
47251;SDS011;32991;51.374;11.586;2023-03-14T04:22:33;4.32;;;1.40;;
47251;SDS011;32991;51.374;11.586;2023-03-14T04:25:00;3.33;;;1.23;;
47251;SDS011;32991;51.374;11.586;2023-03-14T04:27:31;4.50;;;1.50;;
47251;SDS011;32991;51.374;11.586;2023-03-14T04:29:59;3.72;;;1.30;;
47251;SDS011;32991;51.374;11.586;2023-03-14T04:32:44;3.30;;;1.38;;
47251;SDS011;32991;51.374;11.586;2023-03-14T04:35:11;3.75;;;1.40;;
47251;SDS011;32991;51.374;11.586;2023-03-14T04:37:37;4.25;;;1.40;;
47251;SDS011;32991;51.374;11.586;2023-03-14T04:40:07;5.07;;;1.40;;
47251;SDS011;32991;51.374;11.586;2023-03-14T04:42:34;4.53;;;1.60;;
47251;SDS011;32991;51.374;11.586;2023-03-14T04:45:01;4.05;;;1.60;;
47251;SDS011;32991;51.374;11.586;2023-03-14T04:47:30;4.93;;;1.85;;
47251;SDS011;32991;51.374;11.586;2023-03-14T04:49:57;4.13;;;1.70;;
47251;SDS011;32991;51.374;11.586;2023-03-14T04:52:24;4.78;;;1.58;;
47251;SDS011;32991;51.374;11.586;2023-03-14T04:54:51;7.25;;;1.92;;
47251;SDS011;32991;51.374;11.586;2023-03-14T04:57:19;4.80;;;1.38;;
47251;SDS011;32991;51.374;11.586;2023-03-14T04:59:47;4.28;;;1.55;;
47251;SDS011;32991;51.374;11.586;2023-03-14T05:02:39;2.95;;;1.45;;
47251;SDS011;32991;51.374;11.586;2023-03-14T05:05:21;4.68;;;1.75;;
47251;SDS011;32991;51.374;11.586;2023-03-14T05:08:06;5.97;;;1.50;;
47251;SDS011;32991;51.374;11.586;2023-03-14T05:10:51;4.07;;;1.45;;
47251;SDS011;32991;51.374;11.586;2023-03-14T05:13:38;5.40;;;1.58;;
47251;SDS011;32991;51.374;11.586;2023-03-14T05:16:14;3.95;;;1.33;;
47251;SDS011;32991;51.374;11.586;2023-03-14T05:18:48;4.80;;;1.20;;
47251;SDS011;32991;51.374;11.586;2023-03-14T05:21:33;3.30;;;1.10;;
47251;SDS011;32991;51.374;11.586;2023-03-14T05:24:26;11.30;;;2.13;;
47251;SDS011;32991;51.374;11.586;2023-03-14T05:27:06;5.32;;;1.55;;
47251;SDS011;32991;51.374;11.586;2023-03-14T05:29:46;6.28;;;1.40;;
47251;SDS011;32991;51.374;11.586;2023-03-14T05:32:32;5.07;;;1.48;;
47251;SDS011;32991;51.374;11.586;2023-03-14T05:35:15;3.95;;;1.42;;
47251;SDS011;32991;51.374;11.586;2023-03-14T05:37:51;3.78;;;1.55;;
47251;SDS011;32991;51.374;11.586;2023-03-14T05:40:20;3.40;;;1.20;;
47251;SDS011;32991;51.374;11.586;2023-03-14T05:43:03;3.45;;;1.30;;
47251;SDS011;32991;51.374;11.586;2023-03-14T05:45:54;4.18;;;1.55;;
47251;SDS011;32991;51.374;11.586;2023-03-14T05:48:40;3.80;;;1.20;;
47251;SDS011;32991;51.374;11.586;2023-03-14T05:51:25;5.35;;;1.48;;
47251;SDS011;32991;51.374;11.586;2023-03-14T05:54:02;3.22;;;1.20;;
47251;SDS011;32991;51.374;11.586;2023-03-14T05:56:48;6.88;;;1.85;;
47251;SDS011;32991;51.374;11.586;2023-03-14T05:59:36;4.72;;;1.33;;
47251;SDS011;32991;51.374;11.586;2023-03-14T06:02:14;5.30;;;1.25;;
47251;SDS011;32991;51.374;11.586;2023-03-14T06:04:52;4.13;;;1.50;;
47251;SDS011;32991;51.374;11.586;2023-03-14T06:07:18;4.68;;;1.67;;
47251;SDS011;32991;51.374;11.586;2023-03-14T06:09:45;5.35;;;1.30;;
47251;SDS011;32991;51.374;11.586;2023-03-14T06:12:15;2.40;;;1.10;;
47251;SDS011;32991;51.374;11.586;2023-03-14T06:14:44;5.55;;;1.42;;
47251;SDS011;32991;51.374;11.586;2023-03-14T06:17:11;4.90;;;1.30;;
47251;SDS011;32991;51.374;11.586;2023-03-14T06:19:46;4.50;;;1.38;;
47251;SDS011;32991;51.374;11.586;2023-03-14T06:22:13;4.50;;;1.70;;
47251;SDS011;32991;51.374;11.586;2023-03-14T06:24:40;4.25;;;1.48;;
47251;SDS011;32991;51.374;11.586;2023-03-14T06:27:06;8.00;;;1.50;;
47251;SDS011;32991;51.374;11.586;2023-03-14T06:29:33;3.85;;;1.50;;
47251;SDS011;32991;51.374;11.586;2023-03-14T06:32:01;5.05;;;1.27;;
47251;SDS011;32991;51.374;11.586;2023-03-14T06:34:28;5.82;;;1.25;;
47251;SDS011;32991;51.374;11.586;2023-03-14T06:36:54;4.38;;;1.23;;
47251;SDS011;32991;51.374;11.586;2023-03-14T06:39:21;6.07;;;1.60;;
47251;SDS011;32991;51.374;11.586;2023-03-14T06:41:56;3.75;;;1.13;;
47251;SDS011;32991;51.374;11.586;2023-03-14T06:44:23;2.70;;;1.20;;
47251;SDS011;32991;51.374;11.586;2023-03-14T06:46:49;4.65;;;1.50;;
47251;SDS011;32991;51.374;11.586;2023-03-14T06:49:17;5.85;;;1.35;;
47251;SDS011;32991;51.374;11.586;2023-03-14T06:51:45;3.63;;;1.33;;
47251;SDS011;32991;51.374;11.586;2023-03-14T06:54:12;4.45;;;1.25;;
47251;SDS011;32991;51.374;11.586;2023-03-14T06:56:40;4.13;;;1.33;;
47251;SDS011;32991;51.374;11.586;2023-03-14T06:59:06;5.80;;;1.65;;
47251;SDS011;32991;51.374;11.586;2023-03-14T07:01:33;4.75;;;1.30;;
47251;SDS011;32991;51.374;11.586;2023-03-14T07:04:05;1.83;;;1.10;;
47251;SDS011;32991;51.374;11.586;2023-03-14T07:06:34;2.83;;;1.10;;
47251;SDS011;32991;51.374;11.586;2023-03-14T07:09:00;3.50;;;1.80;;
47251;SDS011;32991;51.374;11.586;2023-03-14T07:11:52;5.40;;;1.48;;
47251;SDS011;32991;51.374;11.586;2023-03-14T07:14:18;3.13;;;1.10;;
47251;SDS011;32991;51.374;11.586;2023-03-14T07:16:47;4.93;;;1.50;;
47251;SDS011;32991;51.374;11.586;2023-03-14T07:19:14;2.83;;;1.30;;
47251;SDS011;32991;51.374;11.586;2023-03-14T07:21:40;4.65;;;1.35;;
47251;SDS011;32991;51.374;11.586;2023-03-14T07:24:10;4.38;;;1.38;;
47251;SDS011;32991;51.374;11.586;2023-03-14T07:26:37;5.68;;;1.30;;
47251;SDS011;32991;51.374;11.586;2023-03-14T07:29:04;3.17;;;1.52;;
47251;SDS011;32991;51.374;11.586;2023-03-14T07:31:32;3.22;;;1.33;;
47251;SDS011;32991;51.374;11.586;2023-03-14T07:33:59;4.65;;;1.92;;
47251;SDS011;32991;51.374;11.586;2023-03-14T07:36:30;3.72;;;1.30;;
47251;SDS011;32991;51.374;11.586;2023-03-14T07:38:57;2.72;;;1.15;;
47251;SDS011;32991;51.374;11.586;2023-03-14T07:41:32;2.55;;;1.20;;
47251;SDS011;32991;51.374;11.586;2023-03-14T07:44:17;2.70;;;0.88;;
47251;SDS011;32991;51.374;11.586;2023-03-14T07:46:43;3.10;;;1.30;;
47251;SDS011;32991;51.374;11.586;2023-03-14T07:49:10;3.03;;;1.38;;
47251;SDS011;32991;51.374;11.586;2023-03-14T07:51:36;1.98;;;0.90;;
47251;SDS011;32991;51.374;11.586;2023-03-14T07:54:03;2.60;;;1.00;;
47251;SDS011;32991;51.374;11.586;2023-03-14T07:56:30;1.95;;;1.10;;
47251;SDS011;32991;51.374;11.586;2023-03-14T07:59:00;0.80;;;0.65;;
47251;SDS011;32991;51.374;11.586;2023-03-14T08:01:27;2.95;;;1.20;;
47251;SDS011;32991;51.374;11.586;2023-03-14T08:03:54;2.65;;;1.20;;
47251;SDS011;32991;51.374;11.586;2023-03-14T08:06:20;1.95;;;1.00;;
47251;SDS011;32991;51.374;11.586;2023-03-14T08:08:47;2.90;;;1.02;;
47251;SDS011;32991;51.374;11.586;2023-03-14T08:11:14;4.50;;;1.10;;
47251;SDS011;32991;51.374;11.586;2023-03-14T08:13:40;1.88;;;0.82;;
47251;SDS011;32991;51.374;11.586;2023-03-14T08:16:07;3.35;;;0.85;;
47251;SDS011;32991;51.374;11.586;2023-03-14T08:18:34;3.78;;;1.20;;
47251;SDS011;32991;51.374;11.586;2023-03-14T08:21:00;2.53;;;1.15;;
47251;SDS011;32991;51.374;11.586;2023-03-14T08:23:27;2.08;;;0.90;;
47251;SDS011;32991;51.374;11.586;2023-03-14T08:25:54;3.28;;;1.02;;
47251;SDS011;32991;51.374;11.586;2023-03-14T08:28:20;2.78;;;0.82;;
47251;SDS011;32991;51.374;11.586;2023-03-14T08:30:46;2.75;;;0.75;;
47251;SDS011;32991;51.374;11.586;2023-03-14T08:33:13;3.38;;;1.08;;
47251;SDS011;32991;51.374;11.586;2023-03-14T08:35:40;1.90;;;0.73;;
47251;SDS011;32991;51.374;11.586;2023-03-14T08:38:06;3.97;;;0.70;;
47251;SDS011;32991;51.374;11.586;2023-03-14T08:40:32;3.28;;;1.00;;
47251;SDS011;32991;51.374;11.586;2023-03-14T08:42:59;1.58;;;0.80;;
47251;SDS011;32991;51.374;11.586;2023-03-14T08:45:25;2.00;;;0.70;;
47251;SDS011;32991;51.374;11.586;2023-03-14T08:47:52;3.22;;;0.80;;
47251;SDS011;32991;51.374;11.586;2023-03-14T08:50:19;3.40;;;0.77;;
47251;SDS011;32991;51.374;11.586;2023-03-14T08:52:45;1.85;;;0.60;;
47251;SDS011;32991;51.374;11.586;2023-03-14T08:55:12;1.83;;;0.77;;
47251;SDS011;32991;51.374;11.586;2023-03-14T08:57:38;4.80;;;1.00;;
47251;SDS011;32991;51.374;11.586;2023-03-14T09:00:05;2.03;;;0.60;;
47251;SDS011;32991;51.374;11.586;2023-03-14T09:02:38;1.53;;;0.83;;
47251;SDS011;32991;51.374;11.586;2023-03-14T09:05:05;1.95;;;0.60;;
47251;SDS011;32991;51.374;11.586;2023-03-14T09:07:32;1.85;;;0.60;;
47251;SDS011;32991;51.374;11.586;2023-03-14T09:09:58;0.73;;;0.60;;
47251;SDS011;32991;51.374;11.586;2023-03-14T09:12:25;1.85;;;0.60;;
47251;SDS011;32991;51.374;11.586;2023-03-14T09:14:51;2.67;;;0.77;;
47251;SDS011;32991;51.374;11.586;2023-03-14T09:17:18;2.80;;;0.85;;
47251;SDS011;32991;51.374;11.586;2023-03-14T09:19:44;3.45;;;0.73;;
47251;SDS011;32991;51.374;11.586;2023-03-14T09:22:11;0.70;;;0.55;;
47251;SDS011;32991;51.374;11.586;2023-03-14T09:24:37;4.80;;;0.68;;
47251;SDS011;32991;51.374;11.586;2023-03-14T09:27:04;1.05;;;0.57;;
47251;SDS011;32991;51.374;11.586;2023-03-14T09:29:30;3.35;;;0.80;;
47251;SDS011;32991;51.374;11.586;2023-03-14T09:31:57;2.97;;;0.55;;
47251;SDS011;32991;51.374;11.586;2023-03-14T09:34:24;1.33;;;0.60;;
47251;SDS011;32991;51.374;11.586;2023-03-14T09:36:51;2.72;;;0.63;;
47251;SDS011;32991;51.374;11.586;2023-03-14T09:39:17;1.05;;;0.60;;
47251;SDS011;32991;51.374;11.586;2023-03-14T09:41:47;1.50;;;0.52;;
47251;SDS011;32991;51.374;11.586;2023-03-14T09:44:28;1.25;;;0.52;;
47251;SDS011;32991;51.374;11.586;2023-03-14T09:46:57;1.20;;;0.40;;
47251;SDS011;32991;51.374;11.586;2023-03-14T09:49:27;0.47;;;0.40;;
47251;SDS011;32991;51.374;11.586;2023-03-14T09:51:56;1.40;;;0.45;;
47251;SDS011;32991;51.374;11.586;2023-03-14T09:54:58;0.47;;;0.40;;
47251;SDS011;32991;51.374;11.586;2023-03-14T09:57:19;2.38;;;0.47;;
47251;SDS011;32991;51.374;11.586;2023-03-14T09:59:47;0.30;;;0.30;;
47251;SDS011;32991;51.374;11.586;2023-03-14T10:02:25;1.88;;;0.45;;
47251;SDS011;32991;51.374;11.586;2023-03-14T10:04:55;1.42;;;0.30;;
47251;SDS011;32991;51.374;11.586;2023-03-14T10:07:22;1.00;;;0.40;;
47251;SDS011;32991;51.374;11.586;2023-03-14T10:09:53;0.90;;;0.28;;
47251;SDS011;32991;51.374;11.586;2023-03-14T10:12:20;0.68;;;0.40;;
47251;SDS011;32991;51.374;11.586;2023-03-14T10:14:57;1.20;;;0.52;;
47251;SDS011;32991;51.374;11.586;2023-03-14T10:17:38;0.55;;;0.30;;
47251;SDS011;32991;51.374;11.586;2023-03-14T10:20:25;0.40;;;0.40;;
47251;SDS011;32991;51.374;11.586;2023-03-14T10:22:59;0.63;;;0.40;;
47251;SDS011;32991;51.374;11.586;2023-03-14T10:25:28;1.70;;;0.50;;
47251;SDS011;32991;51.374;11.586;2023-03-14T10:27:58;0.40;;;0.40;;
47251;SDS011;32991;51.374;11.586;2023-03-14T10:30:39;0.57;;;0.40;;
47251;SDS011;32991;51.374;11.586;2023-03-14T10:35:43;1.05;;;0.65;;
47251;SDS011;32991;51.374;11.586;2023-03-14T10:38:14;0.90;;;0.47;;
47251;SDS011;32991;51.374;11.586;2023-03-14T10:40:46;1.60;;;0.60;;
47251;SDS011;32991;51.374;11.586;2023-03-14T10:43:16;0.43;;;0.30;;
47251;SDS011;32991;51.374;11.586;2023-03-14T10:45:50;1.08;;;0.55;;
47251;SDS011;32991;51.374;11.586;2023-03-14T10:53:25;0.65;;;0.47;;
47251;SDS011;32991;51.374;11.586;2023-03-14T10:55:53;0.43;;;0.43;;
47251;SDS011;32991;51.374;11.586;2023-03-14T10:58:28;0.57;;;0.43;;
47251;SDS011;32991;51.374;11.586;2023-03-14T11:03:47;0.30;;;0.30;;
47251;SDS011;32991;51.374;11.586;2023-03-14T11:06:26;2.40;;;0.60;;
47251;SDS011;32991;51.374;11.586;2023-03-14T11:09:12;1.30;;;0.40;;
47251;SDS011;32991;51.374;11.586;2023-03-14T11:11:45;0.50;;;0.40;;
47251;SDS011;32991;51.374;11.586;2023-03-14T11:17:19;0.50;;;0.50;;
47251;SDS011;32991;51.374;11.586;2023-03-14T11:22:40;0.60;;;0.32;;
47251;SDS011;32991;51.374;11.586;2023-03-14T11:25:13;1.02;;;0.60;;
47251;SDS011;32991;51.374;11.586;2023-03-14T11:27:46;1.42;;;0.38;;
47251;SDS011;32991;51.374;11.586;2023-03-14T11:30:19;0.57;;;0.57;;
47251;SDS011;32991;51.374;11.586;2023-03-14T11:35:33;0.88;;;0.40;;
47251;SDS011;32991;51.374;11.586;2023-03-14T11:38:23;1.15;;;0.40;;
47251;SDS011;32991;51.374;11.586;2023-03-14T11:40:54;0.40;;;0.38;;
47251;SDS011;32991;51.374;11.586;2023-03-14T11:45:56;0.82;;;0.47;;
47251;SDS011;32991;51.374;11.586;2023-03-14T11:51:29;1.58;;;0.40;;
47251;SDS011;32991;51.374;11.586;2023-03-14T11:54:02;1.10;;;0.50;;
47251;SDS011;32991;51.374;11.586;2023-03-14T11:56:34;0.63;;;0.43;;
47251;SDS011;32991;51.374;11.586;2023-03-14T12:02:04;0.40;;;0.40;;
47251;SDS011;32991;51.374;11.586;2023-03-14T12:07:18;0.68;;;0.40;;
47251;SDS011;32991;51.374;11.586;2023-03-14T12:09:47;0.60;;;0.60;;
47251;SDS011;32991;51.374;11.586;2023-03-14T12:12:17;0.68;;;0.45;;
47251;SDS011;32991;51.374;11.586;2023-03-14T12:14:47;0.95;;;0.47;;
47251;SDS011;32991;51.374;11.586;2023-03-14T12:17:23;2.47;;;0.80;;
47251;SDS011;32991;51.374;11.586;2023-03-14T12:25:18;1.58;;;0.60;;
47251;SDS011;32991;51.374;11.586;2023-03-14T12:27:49;1.00;;;0.60;;
47251;SDS011;32991;51.374;11.586;2023-03-14T12:30:31;0.80;;;0.38;;
47251;SDS011;32991;51.374;11.586;2023-03-14T12:38:13;0.93;;;0.45;;
47251;SDS011;32991;51.374;11.586;2023-03-14T12:43:33;0.75;;;0.60;;
47251;SDS011;32991;51.374;11.586;2023-03-14T12:46:19;0.45;;;0.45;;
47251;SDS011;32991;51.374;11.586;2023-03-14T12:51:37;1.08;;;1.00;;
47251;SDS011;32991;51.374;11.586;2023-03-14T13:04:33;0.52;;;0.40;;
47251;SDS011;32991;51.374;11.586;2023-03-14T13:12:43;0.98;;;0.57;;
47251;SDS011;32991;51.374;11.586;2023-03-14T13:15:18;1.23;;;0.60;;
47251;SDS011;32991;51.374;11.586;2023-03-14T13:17:46;1.77;;;0.60;;
47251;SDS011;32991;51.374;11.586;2023-03-14T13:20:16;1.77;;;1.42;;
47251;SDS011;32991;51.374;11.586;2023-03-14T13:22:47;0.43;;;0.32;;
47251;SDS011;32991;51.374;11.586;2023-03-14T13:25:15;1.40;;;0.32;;
47251;SDS011;32991;51.374;11.586;2023-03-14T13:27:44;4.55;;;3.35;;
47251;SDS011;32991;51.374;11.586;2023-03-14T13:30:18;1.00;;;0.57;;
47251;SDS011;32991;51.374;11.586;2023-03-14T13:32:48;0.43;;;0.43;;
47251;SDS011;32991;51.374;11.586;2023-03-14T13:36:02;0.40;;;0.40;;
47251;SDS011;32991;51.374;11.586;2023-03-14T13:38:15;0.98;;;0.57;;
47251;SDS011;32991;51.374;11.586;2023-03-14T13:40:43;0.35;;;0.35;;
47251;SDS011;32991;51.374;11.586;2023-03-14T13:45:49;1.77;;;1.00;;
47251;SDS011;32991;51.374;11.586;2023-03-14T13:48:20;2.20;;;0.57;;
47251;SDS011;32991;51.374;11.586;2023-03-14T13:50:54;0.88;;;0.65;;
47251;SDS011;32991;51.374;11.586;2023-03-14T13:53:23;0.73;;;0.73;;
47251;SDS011;32991;51.374;11.586;2023-03-14T13:55:49;0.65;;;0.65;;
47251;SDS011;32991;51.374;11.586;2023-03-14T13:58:21;1.75;;;0.98;;
47251;SDS011;32991;51.374;11.586;2023-03-14T14:00:53;1.08;;;0.73;;
47251;SDS011;32991;51.374;11.586;2023-03-14T14:03:21;1.23;;;0.93;;
47251;SDS011;32991;51.374;11.586;2023-03-14T14:05:48;2.05;;;1.35;;
47251;SDS011;32991;51.374;11.586;2023-03-14T14:08:15;3.13;;;1.30;;
47251;SDS011;32991;51.374;11.586;2023-03-14T14:10:41;3.70;;;1.50;;
47251;SDS011;32991;51.374;11.586;2023-03-14T14:13:12;0.88;;;0.50;;
47251;SDS011;32991;51.374;11.586;2023-03-14T14:15:41;7.93;;;2.20;;
47251;SDS011;32991;51.374;11.586;2023-03-14T14:18:10;1.25;;;0.60;;
47251;SDS011;32991;51.374;11.586;2023-03-14T14:20:40;2.22;;;0.85;;
47251;SDS011;32991;51.374;11.586;2023-03-14T14:23:09;4.78;;;1.05;;
47251;SDS011;32991;51.374;11.586;2023-03-14T14:25:37;3.30;;;1.08;;
47251;SDS011;32991;51.374;11.586;2023-03-14T14:28:14;4.10;;;2.00;;
47251;SDS011;32991;51.374;11.586;2023-03-14T14:30:43;0.98;;;0.60;;
47251;SDS011;32991;51.374;11.586;2023-03-14T14:33:20;0.75;;;0.40;;
47251;SDS011;32991;51.374;11.586;2023-03-14T14:35:54;1.02;;;0.52;;
47251;SDS011;32991;51.374;11.586;2023-03-14T14:38:22;1.48;;;0.50;;
47251;SDS011;32991;51.374;11.586;2023-03-14T14:40:51;4.47;;;0.40;;
47251;SDS011;32991;51.374;11.586;2023-03-14T14:43:23;1.58;;;0.40;;
47251;SDS011;32991;51.374;11.586;2023-03-14T14:45:52;3.05;;;0.63;;
47251;SDS011;32991;51.374;11.586;2023-03-14T14:48:22;1.02;;;0.90;;
47251;SDS011;32991;51.374;11.586;2023-03-14T14:51:03;0.52;;;0.40;;
47251;SDS011;32991;51.374;11.586;2023-03-14T14:53:36;0.88;;;0.47;;
47251;SDS011;32991;51.374;11.586;2023-03-14T14:56:07;0.38;;;0.30;;
47251;SDS011;32991;51.374;11.586;2023-03-14T14:58:46;0.22;;;0.22;;
47251;SDS011;32991;51.374;11.586;2023-03-14T15:01:17;0.20;;;0.20;;
47251;SDS011;32991;51.374;11.586;2023-03-14T15:03:46;0.28;;;0.28;;
47251;SDS011;32991;51.374;11.586;2023-03-14T15:06:14;0.20;;;0.20;;
47251;SDS011;32991;51.374;11.586;2023-03-14T15:08:48;0.20;;;0.20;;
47251;SDS011;32991;51.374;11.586;2023-03-14T15:11:21;0.30;;;0.22;;
47251;SDS011;32991;51.374;11.586;2023-03-14T15:16:16;0.30;;;0.30;;
47251;SDS011;32991;51.374;11.586;2023-03-14T15:18:52;0.40;;;0.40;;
47251;SDS011;32991;51.374;11.586;2023-03-14T15:21:21;0.50;;;0.50;;
47251;SDS011;32991;51.374;11.586;2023-03-14T15:23:48;0.40;;;0.40;;
47251;SDS011;32991;51.374;11.586;2023-03-14T15:26:19;0.50;;;0.50;;
47251;SDS011;32991;51.374;11.586;2023-03-14T15:28:46;1.20;;;0.50;;
47251;SDS011;32991;51.374;11.586;2023-03-14T15:31:13;0.43;;;0.40;;
47251;SDS011;32991;51.374;11.586;2023-03-14T15:33:42;0.40;;;0.40;;
47251;SDS011;32991;51.374;11.586;2023-03-14T15:36:20;0.40;;;0.40;;
47251;SDS011;32991;51.374;11.586;2023-03-14T15:38:50;0.40;;;0.40;;
47251;SDS011;32991;51.374;11.586;2023-03-14T15:41:17;0.30;;;0.30;;
47251;SDS011;32991;51.374;11.586;2023-03-14T15:43:44;0.52;;;0.40;;
47251;SDS011;32991;51.374;11.586;2023-03-14T15:46:11;4.05;;;0.88;;
47251;SDS011;32991;51.374;11.586;2023-03-14T15:48:38;1.70;;;1.10;;
47251;SDS011;32991;51.374;11.586;2023-03-14T15:51:05;1.17;;;0.65;;
47251;SDS011;32991;51.374;11.586;2023-03-14T15:53:31;2.00;;;0.65;;
47251;SDS011;32991;51.374;11.586;2023-03-14T15:55:58;3.80;;;1.13;;
47251;SDS011;32991;51.374;11.586;2023-03-14T15:58:25;1.42;;;0.70;;
47251;SDS011;32991;51.374;11.586;2023-03-14T16:00:51;2.75;;;0.85;;
47251;SDS011;32991;51.374;11.586;2023-03-14T16:03:18;4.85;;;1.05;;
47251;SDS011;32991;51.374;11.586;2023-03-14T16:05:44;5.53;;;0.95;;